sensor_id;sensor_type;location;lat;lon;timestamp;P1;durP1;ratioP1;P2;durP2;ratioP2
21000;SDS011;10658;50.920;12.238;2022-12-10T00:03:02;30.33;;;14.60;;
21000;SDS011;10658;50.920;12.238;2022-12-10T00:07:04;35.17;;;16.25;;
21000;SDS011;10658;50.920;12.238;2022-12-10T00:11:06;37.45;;;16.80;;
21000;SDS011;10658;50.920;12.238;2022-12-10T00:15:10;34.50;;;15.52;;
21000;SDS011;10658;50.920;12.238;2022-12-10T00:19:11;36.38;;;16.35;;
21000;SDS011;10658;50.920;12.238;2022-12-10T00:23:14;35.80;;;15.88;;
21000;SDS011;10658;50.920;12.238;2022-12-10T00:27:16;33.08;;;15.52;;
21000;SDS011;10658;50.920;12.238;2022-12-10T00:31:21;36.95;;;15.88;;
21000;SDS011;10658;50.920;12.238;2022-12-10T00:35:26;40.22;;;17.13;;
21000;SDS011;10658;50.920;12.238;2022-12-10T00:39:28;33.97;;;15.68;;
21000;SDS011;10658;50.920;12.238;2022-12-10T00:43:29;39.72;;;16.85;;
21000;SDS011;10658;50.920;12.238;2022-12-10T00:47:30;31.50;;;15.85;;
21000;SDS011;10658;50.920;12.238;2022-12-10T00:51:32;36.67;;;17.80;;
21000;SDS011;10658;50.920;12.238;2022-12-10T00:55:34;38.53;;;16.23;;
21000;SDS011;10658;50.920;12.238;2022-12-10T00:59:35;40.58;;;16.27;;
21000;SDS011;10658;50.920;12.238;2022-12-10T01:03:36;37.38;;;16.88;;
21000;SDS011;10658;50.920;12.238;2022-12-10T01:07:39;40.28;;;16.95;;
21000;SDS011;10658;50.920;12.238;2022-12-10T01:11:41;39.15;;;16.05;;
21000;SDS011;10658;50.920;12.238;2022-12-10T01:15:44;38.13;;;16.42;;
21000;SDS011;10658;50.920;12.238;2022-12-10T01:19:46;32.92;;;15.68;;
21000;SDS011;10658;50.920;12.238;2022-12-10T01:23:48;38.00;;;15.20;;
21000;SDS011;10658;50.920;12.238;2022-12-10T01:27:51;36.35;;;17.05;;
21000;SDS011;10658;50.920;12.238;2022-12-10T01:31:52;43.20;;;16.80;;
21000;SDS011;10658;50.920;12.238;2022-12-10T01:35:55;33.20;;;16.48;;
21000;SDS011;10658;50.920;12.238;2022-12-10T01:39:58;42.03;;;18.17;;
21000;SDS011;10658;50.920;12.238;2022-12-10T01:44:57;45.95;;;18.33;;
21000;SDS011;10658;50.920;12.238;2022-12-10T01:48:27;44.17;;;18.05;;
21000;SDS011;10658;50.920;12.238;2022-12-10T01:52:28;43.10;;;17.00;;
21000;SDS011;10658;50.920;12.238;2022-12-10T01:56:29;35.90;;;14.85;;
21000;SDS011;10658;50.920;12.238;2022-12-10T02:00:34;48.17;;;17.35;;
21000;SDS011;10658;50.920;12.238;2022-12-10T02:21:32;37.88;;;15.20;;
21000;SDS011;10658;50.920;12.238;2022-12-10T02:25:58;41.00;;;17.95;;
21000;SDS011;10658;50.920;12.238;2022-12-10T02:30:27;39.15;;;15.90;;
21000;SDS011;10658;50.920;12.238;2022-12-10T02:34:42;39.63;;;17.02;;
21000;SDS011;10658;50.920;12.238;2022-12-10T02:38:48;36.50;;;15.73;;
21000;SDS011;10658;50.920;12.238;2022-12-10T02:42:54;37.05;;;15.20;;
21000;SDS011;10658;50.920;12.238;2022-12-10T02:46:56;32.42;;;15.25;;
21000;SDS011;10658;50.920;12.238;2022-12-10T02:51:04;38.13;;;15.23;;
21000;SDS011;10658;50.920;12.238;2022-12-10T02:55:06;36.92;;;16.65;;
21000;SDS011;10658;50.920;12.238;2022-12-10T03:07:25;40.88;;;16.25;;
21000;SDS011;10658;50.920;12.238;2022-12-10T03:11:40;39.17;;;17.00;;
21000;SDS011;10658;50.920;12.238;2022-12-10T03:15:44;37.47;;;16.15;;
21000;SDS011;10658;50.920;12.238;2022-12-10T03:19:48;32.38;;;16.00;;
21000;SDS011;10658;50.920;12.238;2022-12-10T03:23:52;39.67;;;16.52;;
21000;SDS011;10658;50.920;12.238;2022-12-10T03:27:54;32.78;;;15.50;;
21000;SDS011;10658;50.920;12.238;2022-12-10T03:31:56;36.22;;;15.63;;
21000;SDS011;10658;50.920;12.238;2022-12-10T03:35:59;32.70;;;15.40;;
21000;SDS011;10658;50.920;12.238;2022-12-10T03:40:01;27.80;;;13.32;;
21000;SDS011;10658;50.920;12.238;2022-12-10T03:44:04;37.03;;;15.77;;
21000;SDS011;10658;50.920;12.238;2022-12-10T03:48:06;40.50;;;16.52;;
21000;SDS011;10658;50.920;12.238;2022-12-10T03:52:07;35.90;;;14.77;;
21000;SDS011;10658;50.920;12.238;2022-12-10T03:56:08;39.22;;;15.68;;
21000;SDS011;10658;50.920;12.238;2022-12-10T04:00:10;33.40;;;14.70;;
21000;SDS011;10658;50.920;12.238;2022-12-10T04:04:12;32.72;;;14.30;;
21000;SDS011;10658;50.920;12.238;2022-12-10T04:08:14;32.85;;;14.63;;
21000;SDS011;10658;50.920;12.238;2022-12-10T04:12:15;37.53;;;14.27;;
21000;SDS011;10658;50.920;12.238;2022-12-10T04:16:16;35.05;;;13.68;;
21000;SDS011;10658;50.920;12.238;2022-12-10T04:20:30;32.83;;;14.68;;
21000;SDS011;10658;50.920;12.238;2022-12-10T04:24:50;32.75;;;14.93;;
21000;SDS011;10658;50.920;12.238;2022-12-10T04:29:10;35.65;;;15.07;;
21000;SDS011;10658;50.920;12.238;2022-12-10T04:33:12;32.38;;;14.63;;
21000;SDS011;10658;50.920;12.238;2022-12-10T04:37:13;30.40;;;14.13;;
21000;SDS011;10658;50.920;12.238;2022-12-10T04:41:16;32.47;;;14.43;;
21000;SDS011;10658;50.920;12.238;2022-12-10T04:45:16;39.10;;;14.57;;
21000;SDS011;10658;50.920;12.238;2022-12-10T04:49:18;39.55;;;14.48;;
21000;SDS011;10658;50.920;12.238;2022-12-10T04:53:20;35.28;;;15.02;;
21000;SDS011;10658;50.920;12.238;2022-12-10T04:57:23;32.95;;;14.68;;
21000;SDS011;10658;50.920;12.238;2022-12-10T05:01:25;32.17;;;14.13;;
21000;SDS011;10658;50.920;12.238;2022-12-10T05:05:27;34.75;;;14.98;;
21000;SDS011;10658;50.920;12.238;2022-12-10T05:09:29;30.33;;;14.55;;
21000;SDS011;10658;50.920;12.238;2022-12-10T05:13:31;34.97;;;14.52;;
21000;SDS011;10658;50.920;12.238;2022-12-10T05:17:32;38.05;;;13.98;;
21000;SDS011;10658;50.920;12.238;2022-12-10T05:21:33;33.10;;;14.27;;
21000;SDS011;10658;50.920;12.238;2022-12-10T05:30:09;31.98;;;13.60;;
21000;SDS011;10658;50.920;12.238;2022-12-10T05:34:12;35.17;;;14.82;;
21000;SDS011;10658;50.920;12.238;2022-12-10T05:38:13;36.13;;;15.27;;
21000;SDS011;10658;50.920;12.238;2022-12-10T05:42:14;30.63;;;14.02;;
21000;SDS011;10658;50.920;12.238;2022-12-10T05:46:16;30.77;;;13.52;;
21000;SDS011;10658;50.920;12.238;2022-12-10T05:50:22;29.85;;;13.38;;
21000;SDS011;10658;50.920;12.238;2022-12-10T05:54:23;33.72;;;13.85;;
21000;SDS011;10658;50.920;12.238;2022-12-10T05:58:24;40.28;;;14.52;;
21000;SDS011;10658;50.920;12.238;2022-12-10T06:02:28;33.35;;;14.85;;
21000;SDS011;10658;50.920;12.238;2022-12-10T06:06:31;31.65;;;14.55;;
21000;SDS011;10658;50.920;12.238;2022-12-10T06:10:38;35.47;;;14.98;;
21000;SDS011;10658;50.920;12.238;2022-12-10T06:14:39;40.20;;;16.17;;
21000;SDS011;10658;50.920;12.238;2022-12-10T06:18:41;36.35;;;14.73;;
21000;SDS011;10658;50.920;12.238;2022-12-10T06:22:42;39.58;;;15.63;;
21000;SDS011;10658;50.920;12.238;2022-12-10T06:26:45;36.25;;;15.85;;
21000;SDS011;10658;50.920;12.238;2022-12-10T06:30:46;35.75;;;14.77;;
21000;SDS011;10658;50.920;12.238;2022-12-10T06:34:47;34.65;;;15.60;;
21000;SDS011;10658;50.920;12.238;2022-12-10T06:38:48;27.90;;;12.80;;
21000;SDS011;10658;50.920;12.238;2022-12-10T06:42:52;36.03;;;14.18;;
21000;SDS011;10658;50.920;12.238;2022-12-10T06:46:53;27.30;;;13.18;;
21000;SDS011;10658;50.920;12.238;2022-12-10T06:50:55;33.45;;;13.52;;
21000;SDS011;10658;50.920;12.238;2022-12-10T06:54:56;35.63;;;13.88;;
21000;SDS011;10658;50.920;12.238;2022-12-10T06:58:58;30.38;;;13.23;;
21000;SDS011;10658;50.920;12.238;2022-12-10T07:02:59;26.77;;;13.20;;
21000;SDS011;10658;50.920;12.238;2022-12-10T07:07:00;30.73;;;13.77;;
21000;SDS011;10658;50.920;12.238;2022-12-10T07:11:05;33.70;;;13.40;;
21000;SDS011;10658;50.920;12.238;2022-12-10T07:15:07;29.55;;;13.18;;
21000;SDS011;10658;50.920;12.238;2022-12-10T07:19:11;31.75;;;13.23;;
21000;SDS011;10658;50.920;12.238;2022-12-10T07:23:13;36.15;;;12.95;;
21000;SDS011;10658;50.920;12.238;2022-12-10T07:27:14;30.77;;;13.73;;
21000;SDS011;10658;50.920;12.238;2022-12-10T07:31:15;31.50;;;13.57;;
21000;SDS011;10658;50.920;12.238;2022-12-10T07:35:16;33.60;;;15.05;;
21000;SDS011;10658;50.920;12.238;2022-12-10T07:39:18;24.98;;;10.85;;
21000;SDS011;10658;50.920;12.238;2022-12-10T07:43:19;33.70;;;13.88;;
21000;SDS011;10658;50.920;12.238;2022-12-10T07:47:20;27.27;;;12.10;;
21000;SDS011;10658;50.920;12.238;2022-12-10T07:51:21;22.10;;;9.80;;
21000;SDS011;10658;50.920;12.238;2022-12-10T07:55:23;26.58;;;11.52;;
21000;SDS011;10658;50.920;12.238;2022-12-10T07:59:24;30.33;;;13.43;;
21000;SDS011;10658;50.920;12.238;2022-12-10T08:03:25;25.65;;;12.45;;
21000;SDS011;10658;50.920;12.238;2022-12-10T08:07:27;32.80;;;11.68;;
21000;SDS011;10658;50.920;12.238;2022-12-10T08:11:28;26.38;;;12.10;;
21000;SDS011;10658;50.920;12.238;2022-12-10T08:15:30;25.23;;;11.00;;
21000;SDS011;10658;50.920;12.238;2022-12-10T08:19:31;20.80;;;10.60;;
21000;SDS011;10658;50.920;12.238;2022-12-10T08:23:32;22.08;;;10.63;;
21000;SDS011;10658;50.920;12.238;2022-12-10T08:27:34;23.08;;;11.27;;
21000;SDS011;10658;50.920;12.238;2022-12-10T08:31:35;23.70;;;11.30;;
21000;SDS011;10658;50.920;12.238;2022-12-10T08:35:37;23.17;;;10.23;;
21000;SDS011;10658;50.920;12.238;2022-12-10T08:39:38;25.02;;;10.75;;
21000;SDS011;10658;50.920;12.238;2022-12-10T08:43:45;22.75;;;10.68;;
21000;SDS011;10658;50.920;12.238;2022-12-10T08:47:48;21.55;;;11.85;;
21000;SDS011;10658;50.920;12.238;2022-12-10T08:51:51;23.35;;;11.13;;
21000;SDS011;10658;50.920;12.238;2022-12-10T08:55:52;21.75;;;9.80;;
21000;SDS011;10658;50.920;12.238;2022-12-10T08:59:54;21.15;;;10.07;;
21000;SDS011;10658;50.920;12.238;2022-12-10T09:03:55;22.90;;;10.98;;
21000;SDS011;10658;50.920;12.238;2022-12-10T09:07:56;21.55;;;9.60;;
21000;SDS011;10658;50.920;12.238;2022-12-10T09:11:57;19.90;;;10.48;;
21000;SDS011;10658;50.920;12.238;2022-12-10T09:16:00;28.48;;;11.85;;
21000;SDS011;10658;50.920;12.238;2022-12-10T09:20:01;22.25;;;11.05;;
21000;SDS011;10658;50.920;12.238;2022-12-10T09:24:04;24.35;;;11.88;;
21000;SDS011;10658;50.920;12.238;2022-12-10T09:28:06;23.40;;;10.15;;
21000;SDS011;10658;50.920;12.238;2022-12-10T09:32:07;26.13;;;12.15;;
21000;SDS011;10658;50.920;12.238;2022-12-10T09:36:09;25.45;;;11.35;;
21000;SDS011;10658;50.920;12.238;2022-12-10T09:40:14;30.08;;;11.25;;
21000;SDS011;10658;50.920;12.238;2022-12-10T09:52:55;24.05;;;12.40;;
21000;SDS011;10658;50.920;12.238;2022-12-10T09:57:00;24.27;;;11.35;;
21000;SDS011;10658;50.920;12.238;2022-12-10T10:01:04;30.85;;;11.43;;
21000;SDS011;10658;50.920;12.238;2022-12-10T10:09:07;28.25;;;11.15;;
21000;SDS011;10658;50.920;12.238;2022-12-10T10:17:36;29.55;;;12.40;;
21000;SDS011;10658;50.920;12.238;2022-12-10T10:21:39;33.85;;;13.35;;
21000;SDS011;10658;50.920;12.238;2022-12-10T10:25:43;32.80;;;13.48;;
21000;SDS011;10658;50.920;12.238;2022-12-10T10:29:45;29.17;;;12.88;;
21000;SDS011;10658;50.920;12.238;2022-12-10T10:33:50;26.40;;;11.68;;
21000;SDS011;10658;50.920;12.238;2022-12-10T10:38:01;29.27;;;13.77;;
21000;SDS011;10658;50.920;12.238;2022-12-10T10:46:53;32.97;;;12.43;;
21000;SDS011;10658;50.920;12.238;2022-12-10T10:55:33;27.75;;;11.40;;
21000;SDS011;10658;50.920;12.238;2022-12-10T10:59:35;28.08;;;12.65;;
21000;SDS011;10658;50.920;12.238;2022-12-10T11:03:37;33.05;;;12.93;;
21000;SDS011;10658;50.920;12.238;2022-12-10T11:07:47;29.17;;;14.10;;
21000;SDS011;10658;50.920;12.238;2022-12-10T11:12:04;23.23;;;11.23;;
21000;SDS011;10658;50.920;12.238;2022-12-10T11:20:18;28.55;;;12.10;;
21000;SDS011;10658;50.920;12.238;2022-12-10T11:24:21;25.85;;;11.50;;
21000;SDS011;10658;50.920;12.238;2022-12-10T11:32:55;29.35;;;12.35;;
21000;SDS011;10658;50.920;12.238;2022-12-10T11:41:18;24.27;;;12.02;;
21000;SDS011;10658;50.920;12.238;2022-12-10T12:12:41;22.88;;;10.57;;
21000;SDS011;10658;50.920;12.238;2022-12-10T12:21:19;26.13;;;12.13;;
21000;SDS011;10658;50.920;12.238;2022-12-10T12:25:26;25.67;;;11.90;;
21000;SDS011;10658;50.920;12.238;2022-12-10T12:29:40;23.17;;;10.88;;
21000;SDS011;10658;50.920;12.238;2022-12-10T12:34:50;28.00;;;12.98;;
21000;SDS011;10658;50.920;12.238;2022-12-10T12:43:15;31.17;;;13.52;;
21000;SDS011;10658;50.920;12.238;2022-12-10T12:51:52;26.95;;;12.32;;
21000;SDS011;10658;50.920;12.238;2022-12-10T13:00:29;24.50;;;11.55;;
21000;SDS011;10658;50.920;12.238;2022-12-10T13:04:36;27.55;;;11.95;;
21000;SDS011;10658;50.920;12.238;2022-12-10T13:08:47;23.45;;;10.35;;
21000;SDS011;10658;50.920;12.238;2022-12-10T13:17:33;27.98;;;11.80;;
21000;SDS011;10658;50.920;12.238;2022-12-10T13:21:56;21.13;;;10.30;;
21000;SDS011;10658;50.920;12.238;2022-12-10T13:26:00;27.42;;;11.95;;
21000;SDS011;10658;50.920;12.238;2022-12-10T13:34:21;28.75;;;12.05;;
21000;SDS011;10658;50.920;12.238;2022-12-10T13:38:39;19.60;;;10.30;;
21000;SDS011;10658;50.920;12.238;2022-12-10T13:42:44;24.92;;;11.07;;
21000;SDS011;10658;50.920;12.238;2022-12-10T13:47:27;23.67;;;10.80;;
21000;SDS011;10658;50.920;12.238;2022-12-10T13:55:39;22.90;;;11.05;;
21000;SDS011;10658;50.920;12.238;2022-12-10T13:59:49;21.20;;;10.35;;
21000;SDS011;10658;50.920;12.238;2022-12-10T14:04:21;20.35;;;10.65;;
21000;SDS011;10658;50.920;12.238;2022-12-10T14:13:06;20.00;;;10.77;;
21000;SDS011;10658;50.920;12.238;2022-12-10T14:17:21;21.80;;;11.40;;
21000;SDS011;10658;50.920;12.238;2022-12-10T14:21:24;20.10;;;10.45;;
21000;SDS011;10658;50.920;12.238;2022-12-10T14:25:26;21.63;;;11.23;;
21000;SDS011;10658;50.920;12.238;2022-12-10T14:29:27;23.08;;;10.55;;
21000;SDS011;10658;50.920;12.238;2022-12-10T14:33:29;21.15;;;11.50;;
21000;SDS011;10658;50.920;12.238;2022-12-10T14:37:33;22.33;;;10.25;;
21000;SDS011;10658;50.920;12.238;2022-12-10T14:41:38;22.65;;;10.27;;
21000;SDS011;10658;50.920;12.238;2022-12-10T14:45:45;19.95;;;9.05;;
21000;SDS011;10658;50.920;12.238;2022-12-10T14:49:47;20.83;;;9.85;;
21000;SDS011;10658;50.920;12.238;2022-12-10T14:53:52;26.25;;;12.85;;
21000;SDS011;10658;50.920;12.238;2022-12-10T14:58:15;25.25;;;10.90;;
21000;SDS011;10658;50.920;12.238;2022-12-10T15:02:41;25.77;;;12.48;;
21000;SDS011;10658;50.920;12.238;2022-12-10T15:06:45;24.80;;;11.65;;
21000;SDS011;10658;50.920;12.238;2022-12-10T15:10:50;26.88;;;12.95;;
21000;SDS011;10658;50.920;12.238;2022-12-10T15:14:53;27.80;;;13.35;;
21000;SDS011;10658;50.920;12.238;2022-12-10T15:19:05;24.65;;;13.43;;
21000;SDS011;10658;50.920;12.238;2022-12-10T15:27:22;26.30;;;12.77;;
21000;SDS011;10658;50.920;12.238;2022-12-10T15:35:26;22.40;;;12.68;;
21000;SDS011;10658;50.920;12.238;2022-12-10T15:39:32;21.70;;;10.80;;
21000;SDS011;10658;50.920;12.238;2022-12-10T15:48:35;20.88;;;9.98;;
21000;SDS011;10658;50.920;12.238;2022-12-10T15:52:37;22.35;;;10.02;;
21000;SDS011;10658;50.920;12.238;2022-12-10T15:56:40;23.10;;;11.45;;
21000;SDS011;10658;50.920;12.238;2022-12-10T16:00:41;26.42;;;10.68;;
21000;SDS011;10658;50.920;12.238;2022-12-10T16:04:46;24.05;;;10.68;;
21000;SDS011;10658;50.920;12.238;2022-12-10T16:08:47;24.90;;;12.05;;
21000;SDS011;10658;50.920;12.238;2022-12-10T16:12:56;26.42;;;13.07;;
21000;SDS011;10658;50.920;12.238;2022-12-10T16:17:00;28.50;;;12.70;;
21000;SDS011;10658;50.920;12.238;2022-12-10T16:21:02;22.77;;;12.98;;
21000;SDS011;10658;50.920;12.238;2022-12-10T16:25:07;23.48;;;10.93;;
21000;SDS011;10658;50.920;12.238;2022-12-10T16:29:09;25.92;;;11.15;;
21000;SDS011;10658;50.920;12.238;2022-12-10T16:33:10;24.23;;;11.13;;
21000;SDS011;10658;50.920;12.238;2022-12-10T16:37:12;25.40;;;11.75;;
21000;SDS011;10658;50.920;12.238;2022-12-10T16:41:17;25.30;;;11.93;;
21000;SDS011;10658;50.920;12.238;2022-12-10T16:49:36;28.42;;;12.55;;
21000;SDS011;10658;50.920;12.238;2022-12-10T16:53:38;28.42;;;12.60;;
21000;SDS011;10658;50.920;12.238;2022-12-10T16:57:39;29.50;;;13.80;;
21000;SDS011;10658;50.920;12.238;2022-12-10T17:01:41;27.23;;;12.90;;
21000;SDS011;10658;50.920;12.238;2022-12-10T17:05:42;30.20;;;14.02;;
21000;SDS011;10658;50.920;12.238;2022-12-10T17:09:44;32.25;;;13.85;;
21000;SDS011;10658;50.920;12.238;2022-12-10T17:13:44;32.50;;;14.82;;
21000;SDS011;10658;50.920;12.238;2022-12-10T17:18:14;36.30;;;16.23;;
21000;SDS011;10658;50.920;12.238;2022-12-10T17:22:17;35.90;;;15.55;;
21000;SDS011;10658;50.920;12.238;2022-12-10T17:26:29;29.10;;;14.23;;
21000;SDS011;10658;50.920;12.238;2022-12-10T17:30:34;25.85;;;12.55;;
21000;SDS011;10658;50.920;12.238;2022-12-10T17:34:35;29.73;;;13.13;;
21000;SDS011;10658;50.920;12.238;2022-12-10T17:38:36;20.38;;;10.07;;
21000;SDS011;10658;50.920;12.238;2022-12-10T17:42:37;22.27;;;9.50;;
21000;SDS011;10658;50.920;12.238;2022-12-10T17:46:38;22.88;;;9.95;;
21000;SDS011;10658;50.920;12.238;2022-12-10T17:50:40;24.73;;;10.60;;
21000;SDS011;10658;50.920;12.238;2022-12-10T17:54:44;23.65;;;11.57;;
21000;SDS011;10658;50.920;12.238;2022-12-10T17:58:45;22.38;;;10.18;;
21000;SDS011;10658;50.920;12.238;2022-12-10T18:02:48;22.23;;;10.63;;
21000;SDS011;10658;50.920;12.238;2022-12-10T18:06:50;21.00;;;9.63;;
21000;SDS011;10658;50.920;12.238;2022-12-10T18:10:51;20.85;;;10.85;;
21000;SDS011;10658;50.920;12.238;2022-12-10T18:14:58;22.80;;;11.98;;
21000;SDS011;10658;50.920;12.238;2022-12-10T18:19:00;24.42;;;10.38;;
21000;SDS011;10658;50.920;12.238;2022-12-10T18:23:03;20.60;;;9.05;;
21000;SDS011;10658;50.920;12.238;2022-12-10T18:27:08;19.50;;;9.02;;
21000;SDS011;10658;50.920;12.238;2022-12-10T18:31:12;21.33;;;9.70;;
21000;SDS011;10658;50.920;12.238;2022-12-10T18:35:40;17.33;;;8.88;;
21000;SDS011;10658;50.920;12.238;2022-12-10T18:39:43;23.02;;;10.18;;
21000;SDS011;10658;50.920;12.238;2022-12-10T18:43:44;19.15;;;9.73;;
21000;SDS011;10658;50.920;12.238;2022-12-10T18:47:45;19.27;;;9.68;;
21000;SDS011;10658;50.920;12.238;2022-12-10T18:51:47;22.08;;;10.15;;
21000;SDS011;10658;50.920;12.238;2022-12-10T18:55:49;17.88;;;9.40;;
21000;SDS011;10658;50.920;12.238;2022-12-10T18:59:50;19.45;;;9.00;;
21000;SDS011;10658;50.920;12.238;2022-12-10T19:03:52;22.42;;;10.85;;
21000;SDS011;10658;50.920;12.238;2022-12-10T19:07:54;21.73;;;9.50;;
21000;SDS011;10658;50.920;12.238;2022-12-10T19:11:56;19.38;;;9.70;;
21000;SDS011;10658;50.920;12.238;2022-12-10T19:15:58;20.85;;;10.20;;
21000;SDS011;10658;50.920;12.238;2022-12-10T19:20:02;19.23;;;9.73;;
21000;SDS011;10658;50.920;12.238;2022-12-10T19:24:04;24.70;;;10.48;;
21000;SDS011;10658;50.920;12.238;2022-12-10T19:28:10;24.58;;;10.82;;
21000;SDS011;10658;50.920;12.238;2022-12-10T19:32:12;20.60;;;10.73;;
21000;SDS011;10658;50.920;12.238;2022-12-10T19:40:25;20.23;;;10.85;;
21000;SDS011;10658;50.920;12.238;2022-12-10T19:44:30;25.42;;;11.10;;
21000;SDS011;10658;50.920;12.238;2022-12-10T19:48:32;22.67;;;10.57;;
21000;SDS011;10658;50.920;12.238;2022-12-10T19:52:36;27.17;;;12.52;;
21000;SDS011;10658;50.920;12.238;2022-12-10T19:56:38;20.83;;;10.27;;
21000;SDS011;10658;50.920;12.238;2022-12-10T20:00:42;20.90;;;10.98;;
21000;SDS011;10658;50.920;12.238;2022-12-10T20:04:43;21.27;;;11.25;;
21000;SDS011;10658;50.920;12.238;2022-12-10T20:08:44;13.75;;;8.30;;
21000;SDS011;10658;50.920;12.238;2022-12-10T20:12:47;13.70;;;6.93;;
21000;SDS011;10658;50.920;12.238;2022-12-10T20:16:49;11.80;;;6.10;;
21000;SDS011;10658;50.920;12.238;2022-12-10T20:20:51;14.80;;;8.82;;
21000;SDS011;10658;50.920;12.238;2022-12-10T20:24:52;15.70;;;8.27;;
21000;SDS011;10658;50.920;12.238;2022-12-10T20:28:54;16.05;;;9.60;;
21000;SDS011;10658;50.920;12.238;2022-12-10T20:32:55;19.02;;;8.82;;
21000;SDS011;10658;50.920;12.238;2022-12-10T20:36:56;14.30;;;8.52;;
21000;SDS011;10658;50.920;12.238;2022-12-10T20:40:57;21.55;;;10.07;;
21000;SDS011;10658;50.920;12.238;2022-12-10T20:44:58;17.80;;;10.32;;
21000;SDS011;10658;50.920;12.238;2022-12-10T20:48:59;17.50;;;8.32;;
21000;SDS011;10658;50.920;12.238;2022-12-10T20:53:00;14.15;;;8.15;;
21000;SDS011;10658;50.920;12.238;2022-12-10T20:57:02;18.73;;;9.17;;
21000;SDS011;10658;50.920;12.238;2022-12-10T21:01:03;20.20;;;9.93;;
21000;SDS011;10658;50.920;12.238;2022-12-10T21:05:04;15.45;;;8.50;;
21000;SDS011;10658;50.920;12.238;2022-12-10T21:09:06;14.50;;;7.28;;
21000;SDS011;10658;50.920;12.238;2022-12-10T21:13:07;14.77;;;7.90;;
21000;SDS011;10658;50.920;12.238;2022-12-10T21:17:12;16.25;;;8.55;;
21000;SDS011;10658;50.920;12.238;2022-12-10T21:21:14;16.58;;;8.52;;
21000;SDS011;10658;50.920;12.238;2022-12-10T21:25:16;17.27;;;8.77;;
21000;SDS011;10658;50.920;12.238;2022-12-10T21:29:19;18.95;;;10.05;;
21000;SDS011;10658;50.920;12.238;2022-12-10T21:33:22;18.15;;;9.20;;
21000;SDS011;10658;50.920;12.238;2022-12-10T21:37:24;18.02;;;9.43;;
21000;SDS011;10658;50.920;12.238;2022-12-10T21:41:26;18.63;;;9.27;;
21000;SDS011;10658;50.920;12.238;2022-12-10T21:45:46;18.05;;;9.23;;
21000;SDS011;10658;50.920;12.238;2022-12-10T21:49:49;18.90;;;9.52;;
21000;SDS011;10658;50.920;12.238;2022-12-10T21:53:51;21.15;;;11.00;;
21000;SDS011;10658;50.920;12.238;2022-12-10T21:57:52;25.38;;;11.82;;
21000;SDS011;10658;50.920;12.238;2022-12-10T22:01:54;24.05;;;11.80;;
21000;SDS011;10658;50.920;12.238;2022-12-10T22:05:56;27.63;;;13.25;;
21000;SDS011;10658;50.920;12.238;2022-12-10T22:09:57;20.60;;;11.00;;
21000;SDS011;10658;50.920;12.238;2022-12-10T22:13:59;25.35;;;12.13;;
21000;SDS011;10658;50.920;12.238;2022-12-10T22:18:00;26.35;;;12.95;;
21000;SDS011;10658;50.920;12.238;2022-12-10T22:22:01;27.97;;;12.63;;
21000;SDS011;10658;50.920;12.238;2022-12-10T22:26:06;27.63;;;11.82;;
21000;SDS011;10658;50.920;12.238;2022-12-10T22:30:09;23.40;;;11.75;;
21000;SDS011;10658;50.920;12.238;2022-12-10T22:34:11;21.80;;;11.73;;
21000;SDS011;10658;50.920;12.238;2022-12-10T22:38:12;23.95;;;10.77;;
21000;SDS011;10658;50.920;12.238;2022-12-10T22:42:13;22.97;;;10.63;;
21000;SDS011;10658;50.920;12.238;2022-12-10T22:46:15;20.85;;;10.23;;
21000;SDS011;10658;50.920;12.238;2022-12-10T22:50:16;25.52;;;10.35;;
21000;SDS011;10658;50.920;12.238;2022-12-10T22:54:19;23.93;;;11.63;;
21000;SDS011;10658;50.920;12.238;2022-12-10T22:58:20;20.58;;;10.77;;
21000;SDS011;10658;50.920;12.238;2022-12-10T23:02:22;34.10;;;13.07;;
21000;SDS011;10658;50.920;12.238;2022-12-10T23:06:23;25.15;;;12.50;;
21000;SDS011;10658;50.920;12.238;2022-12-10T23:10:24;23.65;;;11.27;;
21000;SDS011;10658;50.920;12.238;2022-12-10T23:14:25;24.48;;;12.00;;
21000;SDS011;10658;50.920;12.238;2022-12-10T23:18:27;26.23;;;11.48;;
21000;SDS011;10658;50.920;12.238;2022-12-10T23:22:31;23.40;;;12.02;;
21000;SDS011;10658;50.920;12.238;2022-12-10T23:26:33;25.98;;;12.82;;
21000;SDS011;10658;50.920;12.238;2022-12-10T23:30:34;24.00;;;11.82;;
21000;SDS011;10658;50.920;12.238;2022-12-10T23:34:35;28.88;;;12.85;;
21000;SDS011;10658;50.920;12.238;2022-12-10T23:38:37;30.58;;;14.43;;
21000;SDS011;10658;50.920;12.238;2022-12-10T23:42:38;28.52;;;13.70;;
21000;SDS011;10658;50.920;12.238;2022-12-10T23:46:39;24.25;;;14.35;;
21000;SDS011;10658;50.920;12.238;2022-12-10T23:50:41;28.65;;;13.63;;
21000;SDS011;10658;50.920;12.238;2022-12-10T23:54:43;25.67;;;13.03;;
21000;SDS011;10658;50.920;12.238;2022-12-10T23:58:46;27.67;;;13.00;;
